Time;durP1;ratioP1;P1;durP2;ratioP2;P2;SDS_P1;SDS_P2;PMS_P1;PMS_P2;Temp;Humidity;BMP_temperature;BMP_pressure;BME280_temperature;BME280_humidity;BME280_pressure;Samples;Min_cycle;Max_cycle;Signal;HPM_P1;HPM_P2
2021/07/20 00:01:45;;;;;;;28.95;13.02;;;;;;;15.59;72.16;101999.16;5065139;28;20035;-62
2021/07/20 00:04:11;;;;;;;31.67;12.60;;;;;;;15.63;71.60;102003.63;5065041;28;20040;-61
2021/07/20 00:06:37;;;;;;;29.52;12.75;;;;;;;15.68;71.63;102007.19;5063650;28;20110;-61
2021/07/20 00:09:05;;;;;;;30.25;13.02;;;;;;;15.61;71.53;101997.41;5066478;28;20032;-62
2021/07/20 00:11:30;;;;;;;31.02;13.07;;;;;;;15.64;71.37;101994.75;5063236;28;20543;-62
2021/07/20 00:13:56;;;;;;;30.35;13.38;;;;;;;15.68;71.29;102007.19;5066313;28;20104;-62
2021/07/20 00:16:21;;;;;;;29.98;12.98;;;;;;;15.68;71.15;102000.97;5063637;28;20041;-62
2021/07/20 00:18:47;;;;;;;31.60;12.73;;;;;;;15.63;70.92;102002.75;5064991;28;20166;-62
2021/07/20 00:21:13;;;;;;;31.10;12.60;;;;;;;15.50;71.63;101996.50;5064683;28;20029;-62
2021/07/20 00:23:38;;;;;;;30.30;12.90;;;;;;;15.50;71.83;102000.03;5063745;28;20032;-62
2021/07/20 00:26:06;;;;;;;29.25;12.15;;;;;;;15.42;71.45;102003.56;5066012;28;20032;-62
2021/07/20 00:28:32;;;;;;;29.35;12.70;;;;;;;15.43;71.65;102005.38;5062611;28;20032;-62
2021/07/20 00:30:57;;;;;;;30.63;12.10;;;;;;;15.38;72.05;102008.03;5062793;28;20021;-62
2021/07/20 00:33:22;;;;;;;30.95;12.93;;;;;;;15.34;71.66;101998.22;5065628;28;20025;-62
2021/07/20 00:35:48;;;;;;;30.73;12.45;;;;;;;15.40;72.02;101997.38;5063801;28;20028;-64
2021/07/20 00:38:15;;;;;;;29.95;12.55;;;;;;;15.23;72.29;102007.97;5064417;28;20039;-63
2021/07/20 00:40:41;;;;;;;30.73;13.05;;;;;;;15.26;72.32;102000.88;5065229;28;20032;-65
2021/07/20 00:43:07;;;;;;;29.05;12.77;;;;;;;15.13;72.77;102007.03;5063034;28;20036;-64
2021/07/20 00:45:34;;;;;;;29.80;12.45;;;;;;;14.97;73.34;102003.44;5065836;28;20040;-63
2021/07/20 00:48:00;;;;;;;29.95;12.95;;;;;;;14.87;73.98;102005.16;5062817;28;20024;-64
2021/07/20 00:50:32;;;;;;;30.13;12.23;;;;;;;14.74;73.96;102001.53;5065615;28;20444;-65
2021/07/20 00:52:57;;;;;;;29.40;12.48;;;;;;;14.69;74.69;101999.72;5062241;28;20034;-66
2021/07/20 00:55:23;;;;;;;30.38;12.35;;;;;;;14.64;75.12;101995.28;5065278;28;20037;-65
2021/07/20 00:57:52;;;;;;;30.58;12.10;;;;;;;14.60;75.01;102001.41;5063242;28;20032;-65
2021/07/20 01:00:19;;;;;;;30.17;12.30;;;;;;;14.47;75.58;101996.91;5063999;28;20025;-66
2021/07/20 01:02:45;;;;;;;30.98;12.85;;;;;;;14.40;76.29;101992.41;5063708;28;20090;-64
2021/07/20 01:05:13;;;;;;;31.48;12.43;;;;;;;14.37;76.24;101998.63;5062812;28;20483;-65
2021/07/20 01:07:42;;;;;;;28.42;12.43;;;;;;;14.37;76.51;101992.41;5064353;28;20036;-65
2021/07/20 01:10:09;;;;;;;30.30;12.50;;;;;;;14.33;76.55;101994.16;5062622;28;20113;-65
2021/07/20 01:12:38;;;;;;;30.83;12.70;;;;;;;14.30;76.63;101997.69;5064789;28;20485;-65
2021/07/20 01:15:06;;;;;;;29.30;13.05;;;;;;;14.25;76.89;102001.19;5061400;28;20417;-65
2021/07/20 01:17:33;;;;;;;32.83;13.25;;;;;;;14.16;77.37;101991.38;5065562;28;20024;-65
2021/07/20 01:20:00;;;;;;;31.25;12.80;;;;;;;14.14;77.72;101995.81;5061954;28;20064;-64
2021/07/20 01:22:35;;;;;;;31.77;13.43;;;;;;;14.11;77.52;101994.00;5064807;28;20024;-64
2021/07/20 01:25:09;;;;;;;31.65;13.35;;;;;;;14.09;77.86;101987.75;5064020;28;20028;-65
2021/07/20 01:27:36;;;;;;;29.27;12.27;;;;;;;14.18;77.31;101994.91;5065868;28;20032;-63
2021/07/20 01:30:03;;;;;;;30.27;12.82;;;;;;;14.19;78.11;101993.16;5068707;28;20016;-63
2021/07/20 01:32:28;;;;;;;31.08;12.82;;;;;;;14.18;78.02;101989.59;5065629;28;20025;-64
2021/07/20 01:34:54;;;;;;;31.80;12.38;;;;;;;14.18;77.51;101992.25;5066281;28;20036;-64
2021/07/20 01:37:21;;;;;;;30.52;12.27;;;;;;;14.14;77.67;101990.50;5062358;28;20045;-64
2021/07/20 01:39:47;;;;;;;29.25;12.73;;;;;;;14.04;77.90;101993.94;5067192;28;20041;-64
2021/07/20 01:42:13;;;;;;;30.30;12.68;;;;;;;14.00;77.66;101992.13;5067165;28;20032;-64
2021/07/20 01:44:39;;;;;;;29.00;12.70;;;;;;;13.97;78.19;101992.13;5065126;28;20027;-64
2021/07/20 01:47:04;;;;;;;28.70;12.52;;;;;;;13.96;78.65;101993.88;5068118;28;20028;-64
2021/07/20 01:49:30;;;;;;;29.50;12.55;;;;;;;13.88;79.10;101988.50;5062243;28;20037;-64
2021/07/20 01:51:57;;;;;;;30.25;12.48;;;;;;;13.85;79.36;101988.47;5066057;28;20020;-64
2021/07/20 01:54:23;;;;;;;29.25;11.85;;;;;;;13.83;79.08;101987.53;5065935;28;20017;-63
2021/07/20 01:56:48;;;;;;;29.38;12.27;;;;;;;13.83;79.92;101991.97;5067189;28;20040;-64
2021/07/20 01:59:14;;;;;;;29.88;12.90;;;;;;;13.78;79.57;101987.50;5066517;28;20427;-64
2021/07/20 02:09:48;;;;;;;28.17;12.02;;;;;;;13.53;80.80;101993.47;4981935;28;20069;-63
2021/07/20 02:12:16;;;;;;;29.23;12.23;;;;;;;13.50;80.78;102001.38;4987664;28;20030;-66
2021/07/20 02:14:45;;;;;;;28.92;12.85;;;;;;;13.48;80.98;101989.88;4986367;28;20035;-63
2021/07/20 02:17:12;;;;;;;31.92;13.48;;;;;;;13.42;81.29;102001.31;4986310;28;20034;-64
2021/07/20 02:19:46;;;;;;;29.55;13.15;;;;;;;13.35;81.45;102002.13;4981278;28;20530;-65
2021/07/20 02:22:17;;;;;;;29.52;13.52;;;;;;;13.28;81.62;101994.91;4982105;28;20050;-64
2021/07/20 02:24:43;;;;;;;31.95;14.32;;;;;;;13.15;82.54;101997.44;4981034;28;20035;-65
2021/07/20 02:27:12;;;;;;;30.38;13.35;;;;;;;13.07;82.64;101996.44;4982484;28;20042;-66
2021/07/20 02:29:38;;;;;;;31.80;14.13;;;;;;;12.97;83.33;102000.75;4980294;28;20135;-66
2021/07/20 02:32:06;;;;;;;29.13;13.20;;;;;;;12.88;83.67;102000.63;4982837;28;20030;-65
2021/07/20 02:34:34;;;;;;;31.98;14.05;;;;;;;12.79;84.98;101998.75;4979772;28;20536;-65
2021/07/20 02:37:00;;;;;;;32.17;14.48;;;;;;;12.84;84.89;101999.72;4979599;28;20169;-66
2021/07/20 02:39:28;;;;;;;31.92;13.02;;;;;;;12.80;84.46;101997.88;4982572;28;20031;-66
2021/07/20 02:41:55;;;;;;;30.38;13.65;;;;;;;12.83;85.09;102002.31;5033631;28;20411;-65
2021/07/20 02:44:23;;;;;;;32.15;14.40;;;;;;;12.72;86.62;102007.50;5062896;28;20450;-65
2021/07/20 02:46:48;;;;;;;32.95;14.05;;;;;;;12.71;86.80;102008.34;5061826;28;20021;-65
2021/07/20 02:49:15;;;;;;;31.33;14.02;;;;;;;12.66;85.77;102007.41;5062022;28;20491;-66
2021/07/20 02:51:44;;;;;;;32.50;14.88;;;;;;;12.60;85.60;102010.00;5063067;28;20104;-66
2021/07/20 02:54:11;;;;;;;32.75;14.65;;;;;;;12.63;85.93;102007.38;5061453;28;20539;-66
2021/07/20 02:56:37;;;;;;;31.95;14.50;;;;;;;12.58;86.80;102003.75;5063459;28;20387;-63
2021/07/20 02:59:05;;;;;;;32.67;15.45;;;;;;;12.50;86.85;102004.53;5060563;28;20119;-66
2021/07/20 03:01:35;;;;;;;30.75;13.95;;;;;;;12.43;87.13;102001.78;5060289;28;20158;-66
2021/07/20 03:04:01;;;;;;;31.17;13.57;;;;;;;12.38;88.11;101999.06;5060292;28;20049;-65
2021/07/20 03:06:28;;;;;;;32.92;15.00;;;;;;;12.31;89.24;101997.19;5063643;28;20028;-66
2021/07/20 03:08:58;;;;;;;31.10;14.57;;;;;;;12.30;87.88;102001.56;5061368;28;20043;-66
2021/07/20 03:11:28;;;;;;;31.10;14.20;;;;;;;12.33;89.28;102001.66;5063311;28;20024;-65
2021/07/20 03:13:57;;;;;;;31.65;13.73;;;;;;;12.34;88.21;102003.41;5061189;28;20029;-65
2021/07/20 03:16:24;;;;;;;29.80;12.75;;;;;;;12.36;88.99;102007.00;5062956;28;20528;-66
2021/07/20 03:18:52;;;;;;;30.10;12.50;;;;;;;12.34;88.73;102003.41;5061693;28;20032;-66
2021/07/20 03:21:19;;;;;;;29.90;12.60;;;;;;;12.34;88.92;102003.41;5062229;28;20086;-65
2021/07/20 03:23:46;;;;;;;29.67;12.93;;;;;;;12.29;89.14;102002.47;5062258;28;20028;-66
2021/07/20 03:26:13;;;;;;;31.58;13.80;;;;;;;12.18;90.07;101996.97;5061316;28;20029;-66
2021/07/20 03:28:40;;;;;;;32.22;14.23;;;;;;;12.26;89.32;102004.16;5063252;28;20052;-66
2021/07/20 03:31:07;;;;;;;29.55;13.13;;;;;;;12.17;87.20;101997.88;5060630;28;20036;-79
2021/07/20 03:33:33;;;;;;;28.67;12.75;;;;;;;12.17;87.14;102005.81;5063678;28;20471;-80
2021/07/20 03:35:59;;;;;;;30.85;13.38;;;;;;;12.07;87.55;101998.56;5060389;28;20036;-80
2021/07/20 03:38:25;;;;;;;31.63;13.63;;;;;;;12.09;87.88;101995.94;5064269;28;20024;-80
2021/07/20 03:40:52;;;;;;;29.92;13.00;;;;;;;12.08;88.37;101995.03;5064940;28;20544;-81
2021/07/20 03:43:24;;;;;;;30.17;13.23;;;;;;;12.03;87.54;101987.03;5065720;28;20021;-82
2021/07/20 03:45:50;;;;;;;29.55;13.30;;;;;;;12.06;87.54;101991.50;5047118;28;20068;-82
2021/07/20 03:48:16;;;;;;;30.38;12.82;;;;;;;12.09;87.55;101990.66;5065274;28;20024;-75
2021/07/20 03:50:44;;;;;;;29.52;12.95;;;;;;;12.02;89.60;101997.59;5065826;28;20082;-77
2021/07/20 03:53:12;;;;;;;30.77;13.40;;;;;;;12.06;87.79;101995.88;5064386;28;20063;-81
2021/07/20 03:55:41;;;;;;;31.52;13.27;;;;;;;12.02;87.86;102001.13;5066432;28;20450;-76
2021/07/20 03:58:08;;;;;;;30.80;13.43;;;;;;;12.08;87.60;101995.03;5063674;28;20059;-78
2021/07/20 04:00:34;;;;;;;30.73;13.85;;;;;;;12.00;89.05;101996.69;5067057;28;20031;-72
2021/07/20 04:05:47;;;;;;;32.33;14.50;;;;;;;11.96;88.90;102000.16;5032705;28;20496;-65
2021/07/20 04:08:16;;;;;;;31.05;14.48;;;;;;;11.95;89.32;102007.19;5036769;28;20057;-80
2021/07/20 04:10:43;;;;;;;33.33;14.75;;;;;;;11.92;88.82;102003.56;5024322;28;20029;-61
2021/07/20 04:13:12;;;;;;;33.22;15.00;;;;;;;11.90;89.71;102003.56;5026437;28;20021;-62
2021/07/20 04:16:08;;;;;;;34.90;15.93;;;;;;;12.00;88.02;102004.66;5023585;28;20053;-61
2021/07/20 04:18:35;;;;;;;32.00;14.57;;;;;;;11.99;89.70;102009.03;4989699;28;20042;-62
2021/07/20 04:21:03;;;;;;;33.83;15.32;;;;;;;11.96;90.61;102002.81;4989254;28;20125;-61
2021/07/20 04:23:28;;;;;;;33.28;14.35;;;;;;;11.99;90.74;102006.38;4976923;28;20034;-61
2021/07/20 04:25:54;;;;;;;33.58;14.23;;;;;;;11.93;91.15;102008.03;4993101;28;20548;-61
2021/07/20 04:28:21;;;;;;;34.58;14.18;;;;;;;11.92;91.50;102004.47;4993005;28;20042;-62
2021/07/20 04:30:47;;;;;;;32.45;14.77;;;;;;;11.97;91.61;102007.22;4993217;28;20047;-62
2021/07/20 04:33:15;;;;;;;33.72;15.15;;;;;;;12.04;91.89;102014.41;4993066;28;20130;-61
2021/07/20 04:35:42;;;;;;;31.42;14.00;;;;;;;12.02;91.58;102008.19;4992799;28;20517;-62
2021/07/20 04:38:10;;;;;;;34.35;15.10;;;;;;;12.10;92.51;102008.31;4992924;28;20042;-62
2021/07/20 04:40:39;;;;;;;33.13;15.05;;;;;;;12.11;92.94;102004.81;4992741;28;20033;-61
2021/07/20 04:43:06;;;;;;;33.50;15.27;;;;;;;12.14;93.08;102005.72;4992822;28;20046;-62
2021/07/20 04:45:33;;;;;;;36.75;16.27;;;;;;;12.16;93.04;102016.41;4989245;28;20026;-62
2021/07/20 04:47:59;;;;;;;35.08;15.93;;;;;;;12.17;93.46;102018.16;4992736;28;20049;-62
2021/07/20 04:50:27;;;;;;;35.40;16.58;;;;;;;12.20;93.66;102015.56;4991544;28;20038;-61
2021/07/20 04:52:53;;;;;;;38.95;17.90;;;;;;;12.25;93.72;102021.84;4992572;28;20033;-62
2021/07/20 04:55:19;;;;;;;35.03;15.63;;;;;;;12.34;93.80;102019.31;5012957;28;20042;-62
2021/07/20 04:57:44;;;;;;;39.20;17.20;;;;;;;12.40;93.71;102028.25;5024540;28;20097;-62
2021/07/20 05:00:10;;;;;;;37.03;16.75;;;;;;;12.45;94.17;102019.50;5023198;28;20097;-62
2021/07/20 05:02:38;;;;;;;38.22;17.15;;;;;;;12.57;93.72;102021.44;5025578;28;20033;-64
2021/07/20 05:05:07;;;;;;;40.28;18.42;;;;;;;12.68;93.05;102026.88;5055238;28;20045;-63
2021/07/20 05:07:33;;;;;;;39.70;18.30;;;;;;;12.80;91.89;102021.78;5062078;28;20112;-62
2021/07/20 05:09:58;;;;;;;40.55;18.95;;;;;;;12.87;91.89;102025.38;5064981;28;20032;-62
2021/07/20 05:12:26;;;;;;;39.53;18.00;;;;;;;12.99;91.32;102029.97;5062662;28;20078;-63
2021/07/20 05:14:52;;;;;;;39.38;17.98;;;;;;;13.07;90.65;102030.97;5064299;28;20029;-62
2021/07/20 05:17:19;;;;;;;37.35;17.10;;;;;;;13.16;90.02;102028.41;5063387;28;20027;-62
2021/07/20 05:19:46;;;;;;;40.50;18.83;;;;;;;13.14;90.34;102032.81;5062819;28;20025;-62
2021/07/20 05:22:14;;;;;;;38.22;18.15;;;;;;;13.22;89.87;102033.81;5064178;28;20107;-61
2021/07/20 05:24:40;;;;;;;41.53;20.23;;;;;;;13.32;89.78;102028.59;5062468;28;20025;-61
2021/07/20 05:27:05;;;;;;;41.42;20.58;;;;;;;13.43;88.73;102033.19;5065098;28;20459;-63
2021/07/20 05:29:31;;;;;;;42.13;20.75;;;;;;;13.50;88.30;102022.63;5067720;28;20375;-62
2021/07/20 05:31:58;;;;;;;40.45;19.60;;;;;;;13.56;87.65;102031.56;5066688;28;20028;-62
2021/07/20 05:34:24;;;;;;;41.28;19.67;;;;;;;13.65;87.11;102029.91;5066756;28;20045;-62
2021/07/20 05:36:50;;;;;;;40.78;19.55;;;;;;;13.72;86.96;102026.44;5068670;28;20145;-63
2021/07/20 05:39:15;;;;;;;42.78;20.13;;;;;;;13.76;87.16;102025.56;5068124;28;20468;-63
2021/07/20 05:41:42;;;;;;;45.75;20.58;;;;;;;13.81;86.66;102028.28;5068879;28;20031;-62
2021/07/20 05:44:12;;;;;;;42.17;20.45;;;;;;;13.83;87.11;102040.69;5065380;28;20021;-62
2021/07/20 05:46:39;;;;;;;41.42;20.00;;;;;;;13.92;86.78;102035.50;5067199;28;20059;-63
2021/07/20 05:49:05;;;;;;;44.33;21.08;;;;;;;13.99;86.92;102038.19;5068676;28;20020;-63
2021/07/20 05:51:31;;;;;;;42.83;19.70;;;;;;;14.02;85.71;102035.56;5067453;28;20103;-64
2021/07/20 05:53:58;;;;;;;41.15;20.38;;;;;;;14.11;85.20;102049.84;5048618;28;20032;-62
2021/07/20 05:56:30;;;;;;;43.47;20.45;;;;;;;14.21;84.93;102044.59;5066285;28;20551;-62
2021/07/20 05:58:56;;;;;;;43.67;21.20;;;;;;;14.20;85.75;102051.69;5068377;28;20024;-63
2021/07/20 06:01:22;;;;;;;40.47;18.98;;;;;;;14.28;84.74;102049.09;5069628;28;20032;-62
2021/07/20 06:03:51;;;;;;;44.65;20.77;;;;;;;14.33;83.50;102049.09;5047558;28;20392;-64
2021/07/20 06:06:17;;;;;;;40.90;19.45;;;;;;;14.37;83.05;102053.59;5063701;28;20090;-64
2021/07/20 06:08:43;;;;;;;40.78;19.85;;;;;;;14.45;84.01;102050.09;5068806;28;20021;-63
2021/07/20 06:11:10;;;;;;;40.50;18.85;;;;;;;14.50;82.39;102052.78;5069426;28;20377;-64
2021/07/20 06:13:39;;;;;;;41.42;19.05;;;;;;;14.61;82.27;102053.78;5065628;28;20035;-63
2021/07/20 06:16:05;;;;;;;39.63;18.83;;;;;;;14.63;81.72;102048.47;5067305;28;20023;-65
2021/07/20 06:18:31;;;;;;;40.55;18.75;;;;;;;14.70;82.19;102054.75;5064280;28;20067;-64
2021/07/20 06:20:59;;;;;;;44.20;20.10;;;;;;;14.77;81.53;102056.56;5067682;28;20053;-63
2021/07/20 06:23:27;;;;;;;40.22;19.77;;;;;;;14.80;79.39;102059.25;5066780;28;20020;-63
2021/07/20 06:25:53;;;;;;;43.08;19.98;;;;;;;14.88;78.31;102059.28;5062578;28;20016;-63
2021/07/20 06:28:21;;;;;;;41.95;19.73;;;;;;;14.93;78.50;102057.56;5069990;28;20086;-62
2021/07/20 06:30:48;;;;;;;42.70;20.95;;;;;;;15.01;77.91;102055.78;5069060;28;20031;-62
2021/07/20 06:33:14;;;;;;;38.92;19.30;;;;;;;15.09;77.17;102062.06;5066813;28;20040;-62
2021/07/20 06:35:42;;;;;;;41.47;19.08;;;;;;;15.13;76.52;102065.63;5065657;28;20021;-63
2021/07/20 06:38:12;;;;;;;40.97;19.80;;;;;;;15.14;76.79;102062.06;5064095;28;20494;-62
2021/07/20 06:40:38;;;;;;;40.90;19.45;;;;;;;15.27;77.81;102063.91;5063784;28;20021;-63
2021/07/20 06:43:06;;;;;;;39.53;18.70;;;;;;;15.34;76.40;102065.72;5068104;28;20032;-62
2021/07/20 06:45:32;;;;;;;39.13;18.23;;;;;;;15.40;76.08;102072.84;5066451;28;20373;-61
2021/07/20 06:47:58;;;;;;;40.90;18.52;;;;;;;15.47;74.66;102065.78;5060573;28;20533;-63
2021/07/20 06:50:23;;;;;;;38.67;17.20;;;;;;;15.51;74.34;102070.25;5065624;28;20037;-65
2021/07/20 06:52:49;;;;;;;35.67;16.77;;;;;;;15.57;73.04;102069.38;5063737;28;20035;-64
2021/07/20 06:55:15;;;;;;;37.70;17.60;;;;;;;15.62;73.51;102068.47;5062472;28;20033;-62
2021/07/20 06:57:44;;;;;;;36.22;16.17;;;;;;;15.69;72.99;102072.94;5065621;28;20033;-61
2021/07/20 07:00:10;;;;;;;42.08;17.77;;;;;;;15.72;72.35;102060.50;5062897;28;20024;-62
2021/07/20 07:02:40;;;;;;;36.80;16.55;;;;;;;15.79;72.02;102068.56;5064962;28;20079;-61
2021/07/20 07:05:09;;;;;;;36.25;16.63;;;;;;;15.82;72.21;102065.88;5064976;28;20495;-61
2021/07/20 07:07:36;;;;;;;37.10;16.52;;;;;;;15.92;73.95;102072.13;5057709;28;20025;-63
2021/07/20 07:10:03;;;;;;;37.70;16.63;;;;;;;15.96;71.71;102063.25;5066948;28;20028;-63
2021/07/20 07:12:31;;;;;;;38.08;17.33;;;;;;;16.06;72.18;102063.25;5063657;28;20534;-63
2021/07/20 07:14:58;;;;;;;36.88;16.48;;;;;;;16.14;70.61;102070.38;5067588;28;20020;-63
2021/07/20 07:17:24;;;;;;;36.30;16.27;;;;;;;16.19;70.69;102073.03;5068815;28;20407;-63
2021/07/20 07:19:51;;;;;;;36.40;16.15;;;;;;;16.29;71.67;102069.47;5066817;28;20021;-63
2021/07/20 07:22:22;;;;;;;37.13;15.88;;;;;;;16.31;70.23;102067.72;5071279;28;20423;-62
2021/07/20 07:24:49;;;;;;;34.78;16.15;;;;;;;16.46;71.47;102076.63;5070098;28;20021;-63
2021/07/20 07:27:16;;;;;;;36.25;17.27;;;;;;;16.47;69.48;102075.69;5052942;28;20021;-64
2021/07/20 07:29:43;;;;;;;34.78;16.10;;;;;;;16.51;68.11;102069.47;5073324;28;20020;-69
2021/07/20 07:32:09;;;;;;;36.38;16.35;;;;;;;16.56;68.72;102079.25;5069128;28;20032;-71
2021/07/20 07:34:36;;;;;;;35.85;16.25;;;;;;;16.63;68.66;102080.16;5069088;28;20027;-68
2021/07/20 07:37:03;;;;;;;36.35;15.85;;;;;;;16.67;68.09;102071.25;5077206;28;20020;-73
2021/07/20 07:39:30;;;;;;;37.03;16.85;;;;;;;16.73;66.73;102081.91;5075250;28;20027;-64
2021/07/20 07:41:57;;;;;;;35.28;16.17;;;;;;;16.85;68.48;102082.78;5071523;28;20020;-61
2021/07/20 07:44:23;;;;;;;35.92;15.77;;;;;;;16.91;65.78;102088.16;5071757;28;20027;-61
2021/07/20 07:46:51;;;;;;;37.30;16.77;;;;;;;16.99;65.23;102086.31;5071365;28;20070;-62
2021/07/20 07:49:16;;;;;;;35.63;16.75;;;;;;;17.12;65.73;102084.50;5067374;28;20433;-61
2021/07/20 07:51:45;;;;;;;35.83;16.05;;;;;;;17.27;66.15;102088.03;5067230;28;20024;-61
2021/07/20 07:54:12;;;;;;;34.65;15.38;;;;;;;17.39;65.03;102085.31;5068579;28;20476;-62
2021/07/20 07:56:38;;;;;;;36.50;16.45;;;;;;;17.41;63.53;102084.41;5068400;28;20020;-62
2021/07/20 07:59:06;;;;;;;32.70;15.23;;;;;;;17.51;65.01;102084.38;5071536;28;20094;-63
2021/07/20 08:01:33;;;;;;;37.13;16.33;;;;;;;17.54;64.20;102087.03;5065047;28;20051;-63
2021/07/20 08:04:00;;;;;;;35.58;16.02;;;;;;;17.47;62.67;102091.50;5067173;28;20061;-64
2021/07/20 08:06:30;;;;;;;36.35;15.95;;;;;;;17.58;64.39;102088.78;5067461;28;20021;-64
2021/07/20 08:08:58;;;;;;;32.40;14.73;;;;;;;17.70;62.75;102093.19;5064876;28;20052;-64
2021/07/20 08:11:25;;;;;;;34.05;14.95;;;;;;;17.88;63.05;102093.09;5067312;28;20360;-64
2021/07/20 08:13:52;;;;;;;36.75;15.95;;;;;;;17.94;61.74;102090.38;5069245;28;20026;-64
2021/07/20 08:16:20;;;;;;;34.75;15.90;;;;;;;18.15;62.03;102095.63;5069866;28;20115;-63
2021/07/20 08:18:46;;;;;;;35.70;16.08;;;;;;;18.24;60.21;102090.19;5066601;28;20100;-63
2021/07/20 08:21:11;;;;;;;36.35;16.10;;;;;;;18.46;60.43;102090.88;5064041;28;20027;-63
2021/07/20 08:23:37;;;;;;;34.40;15.68;;;;;;;18.63;62.09;102088.06;5064332;28;20017;-64
2021/07/20 08:26:11;;;;;;;35.95;16.52;;;;;;;18.66;60.95;102082.66;5066570;28;20028;-63
2021/07/20 08:28:56;;;;;;;34.83;16.30;;;;;;;18.66;59.86;102092.50;5065595;28;20028;-62
2021/07/20 08:31:24;;;;;;;32.10;14.88;;;;;;;18.80;58.96;102087.91;5067191;28;20035;-64
2021/07/20 08:33:53;;;;;;;33.30;15.05;;;;;;;18.99;60.77;102096.66;5068290;28;20065;-64
2021/07/20 08:36:19;;;;;;;34.13;14.70;;;;;;;19.12;58.76;102087.56;5066237;28;20021;-64
2021/07/20 08:38:47;;;;;;;34.17;15.30;;;;;;;19.26;56.62;102091.88;5063262;28;20074;-62
2021/07/20 08:41:50;;;;;;;32.83;15.60;;;;;;;19.14;57.26;102091.09;5061542;28;20021;-62
2021/07/20 08:44:35;;;;;;;32.63;15.07;;;;;;;19.32;58.04;102086.44;5062044;28;20078;-62
2021/07/20 08:47:31;;;;;;;32.50;14.68;;;;;;;19.57;58.13;102086.09;5063440;28;20048;-62
2021/07/20 08:50:16;;;;;;;35.35;15.55;;;;;;;20.35;54.46;102090.31;5060063;28;20044;-64
2021/07/20 08:52:46;;;;;;;32.95;15.10;;;;;;;20.71;52.76;102092.44;5064144;28;20048;-62
2021/07/20 08:55:11;;;;;;;32.88;14.18;;;;;;;20.67;52.54;102088.03;5067926;28;20044;-62
2021/07/20 08:57:49;;;;;;;32.38;14.32;;;;;;;20.84;52.49;102085.91;5069136;28;20032;-64
2021/07/20 09:00:37;;;;;;;32.78;14.23;;;;;;;20.93;53.49;102087.53;5067704;28;20028;-64
2021/07/20 09:03:10;;;;;;;31.95;14.80;;;;;;;20.88;53.33;102084.94;5062921;28;20024;-64
2021/07/20 09:05:50;;;;;;;31.13;14.02;;;;;;;20.82;53.00;102085.03;5028166;28;20037;-65
2021/07/20 09:08:35;;;;;;;33.70;14.82;;;;;;;20.73;53.33;102085.22;5024388;28;20120;-62
2021/07/20 09:11:09;;;;;;;32.30;14.30;;;;;;;20.61;52.74;102082.72;5022755;28;20031;-62
2021/07/20 09:13:37;;;;;;;32.45;14.40;;;;;;;20.73;53.08;102080.72;5025760;28;20026;-61
2021/07/20 09:16:11;;;;;;;32.05;14.38;;;;;;;20.81;52.52;102083.28;5027971;28;20147;-62
2021/07/20 09:18:45;;;;;;;32.53;14.73;;;;;;;20.80;53.60;102080.63;5028963;28;20014;-62
2021/07/20 09:21:13;;;;;;;33.88;14.80;;;;;;;20.95;52.00;102085.69;5023447;28;20030;-62
2021/07/20 09:23:47;;;;;;;32.78;15.25;;;;;;;21.09;51.48;102087.25;5025884;28;20018;-62
2021/07/20 09:26:21;;;;;;;32.05;14.55;;;;;;;21.14;51.81;102090.72;5026918;28;20435;-63
2021/07/20 09:28:56;;;;;;;34.03;15.15;;;;;;;21.22;51.53;102094.13;5026807;28;20017;-64
2021/07/20 09:31:40;;;;;;;34.03;14.88;;;;;;;21.12;50.10;102081.81;5028377;28;20041;-65
2021/07/20 09:34:36;;;;;;;31.60;14.63;;;;;;;21.47;50.80;102085.56;5026307;28;20117;-62
2021/07/20 09:37:09;;;;;;;32.08;14.20;;;;;;;21.74;49.57;102086.75;5023001;28;20563;-62
2021/07/20 09:39:59;;;;;;;31.80;14.57;;;;;;;22.02;49.99;102087.00;5022340;28;20086;-65
2021/07/20 09:42:43;;;;;;;31.33;14.07;;;;;;;22.28;51.11;102080.97;5027176;28;20117;-64
2021/07/20 09:45:12;;;;;;;32.05;14.13;;;;;;;22.55;47.94;102091.13;5029323;28;20034;-62
2021/07/20 09:47:56;;;;;;;31.17;14.35;;;;;;;22.58;47.02;102081.13;5025048;28;20030;-62
2021/07/20 09:50:23;;;;;;;29.92;13.25;;;;;;;22.78;48.02;102080.59;5022517;28;20030;-62
2021/07/20 09:53:20;;;;;;;32.75;14.27;;;;;;;22.83;46.50;102080.47;5024387;28;20040;-62
2021/07/20 09:56:31;;;;;;;32.33;14.10;;;;;;;22.93;47.73;102081.09;5021477;28;20036;-62
2021/07/20 09:59:26;;;;;;;31.35;14.15;;;;;;;22.77;45.89;102081.50;5023012;28;20029;-62
2021/07/20 10:01:54;;;;;;;31.20;14.18;;;;;;;23.02;44.58;102082.66;5004318;28;20452;-62
2021/07/20 10:04:35;;;;;;;29.30;13.23;;;;;;;24.02;43.78;102085.06;5010735;28;20716;-61
2021/07/20 10:07:06;;;;;;;30.95;13.32;;;;;;;25.27;41.44;102078.00;5010751;28;20493;-62
2021/07/20 10:09:50;;;;;;;30.58;13.68;;;;;;;26.26;38.21;102079.53;5010801;28;20034;-62
2021/07/20 10:12:29;;;;;;;29.60;13.02;;;;;;;27.41;37.89;102087.13;5010818;28;20518;-62
2021/07/20 10:15:08;;;;;;;29.75;13.35;;;;;;;28.64;35.98;102082.00;5008650;28;20065;-63
2021/07/20 10:17:50;;;;;;;30.60;13.38;;;;;;;29.87;33.58;102079.84;5010621;28;20126;-62
2021/07/20 10:20:20;;;;;;;31.50;13.10;;;;;;;30.52;30.16;102078.75;5007316;28;20073;-64
2021/07/20 10:23:02;;;;;;;27.95;12.43;;;;;;;31.25;31.76;102072.41;5010844;28;20026;-64
2021/07/20 10:25:29;;;;;;;;;;;;;;;32.42;30.40;102075.63;5009538;28;20038;-65
2021/07/20 10:28:02;;;;;;;29.08;12.95;;;;;;;31.95;28.34;102072.41;5010488;28;20289;-65
2021/07/20 10:30:29;;;;;;;29.70;13.02;;;;;;;31.74;28.32;102069.22;5010517;28;20025;-64
2021/07/20 10:33:07;;;;;;;29.02;12.60;;;;;;;31.57;29.93;102067.63;5010727;28;20608;-65
2021/07/20 10:35:40;;;;;;;28.20;13.10;;;;;;;31.19;29.04;102064.63;5010792;28;20030;-65
2021/07/20 10:38:10;;;;;;;28.98;13.40;;;;;;;31.24;28.46;102063.34;5016494;28;20045;-65
2021/07/20 10:40:36;;;;;;;28.10;12.23;;;;;;;31.51;29.00;102062.53;5043156;28;20030;-65
2021/07/20 10:43:17;;;;;;;28.45;12.73;;;;;;;32.07;27.76;102067.09;5042071;28;20384;-65
2021/07/20 10:45:46;;;;;;;28.70;12.35;;;;;;;32.11;27.21;102065.88;5040619;28;20410;-65
2021/07/20 10:48:17;;;;;;;28.00;11.88;;;;;;;32.60;26.70;102062.50;5042825;28;20414;-65
2021/07/20 10:51:00;;;;;;;28.90;12.30;;;;;;;33.08;26.38;102063.75;5044539;28;20056;-65
2021/07/20 10:53:41;;;;;;;30.17;13.10;;;;;;;33.26;25.59;102054.22;5052348;28;20392;-65
2021/07/20 10:56:30;;;;;;;28.15;12.50;;;;;;;33.53;26.14;102051.28;5045052;28;20377;-65
2021/07/20 10:59:33;;;;;;;29.30;12.50;;;;;;;33.65;26.03;102056.84;5045997;28;20420;-65
2021/07/20 11:02:06;;;;;;;30.15;12.60;;;;;;;32.71;26.59;102052.69;5045999;28;20030;-65
2021/07/20 11:05:01;;;;;;;29.08;12.68;;;;;;;31.85;27.69;102053.97;5057480;28;20147;-65
2021/07/20 11:08:02;;;;;;;29.17;12.25;;;;;;;32.46;28.57;102046.19;5065647;28;20045;-65
2021/07/20 11:10:33;;;;;;;27.60;11.88;;;;;;;32.37;28.47;102057.78;4967964;28;20057;-65
2021/07/20 11:13:12;;;;;;;28.40;12.15;;;;;;;32.72;27.37;102047.09;4965079;28;20043;-65
2021/07/20 11:15:39;;;;;;;26.70;11.82;;;;;;;33.91;25.81;102043.94;4964309;28;20395;-65
2021/07/20 11:18:15;;;;;;;27.77;11.77;;;;;;;35.22;24.68;102046.50;4965921;28;20078;-65
2021/07/20 11:20:42;;;;;;;26.20;11.57;;;;;;;35.44;21.44;102043.75;4963890;28;20047;-65
2021/07/20 11:23:09;;;;;;;27.33;11.98;;;;;;;36.39;22.18;102049.56;4966322;28;20038;-65
2021/07/20 11:25:37;;;;;;;26.08;11.43;;;;;;;36.52;22.37;102044.72;4964448;28;20572;-65
2021/07/20 11:28:04;;;;;;;27.50;11.48;;;;;;;35.98;22.21;102049.38;4965795;28;20038;-66
2021/07/20 11:30:33;;;;;;;26.67;11.82;;;;;;;35.39;22.33;102048.75;4964974;28;20042;-66
2021/07/20 11:33:04;;;;;;;27.38;12.07;;;;;;;34.84;23.25;102045.88;4964965;28;20072;-66